createdAt,value
2018-09-25T00:00:32.042Z,2.40
2018-09-25T00:01:32.007Z,1.80
2018-09-25T00:02:31.986Z,1.80
2018-09-25T00:03:31.984Z,2.30
2018-09-25T00:04:31.936Z,2.10
2018-09-25T00:05:31.968Z,2.00
2018-09-25T00:06:31.915Z,2.10
2018-09-25T00:07:31.894Z,2.10
2018-09-25T00:08:31.905Z,2.20
2018-09-25T00:09:31.820Z,2.20
2018-09-25T00:10:31.826Z,2.20
2018-09-25T00:11:31.810Z,2.30
2018-09-25T00:12:31.765Z,2.20
2018-09-25T00:13:31.779Z,2.20
2018-09-25T00:14:31.707Z,2.30
2018-09-25T00:15:31.723Z,2.30
2018-09-25T00:16:31.670Z,2.40
2018-09-25T00:17:31.647Z,2.40
2018-09-25T00:18:31.624Z,2.30
2018-09-25T00:19:31.611Z,2.30
2018-09-25T00:20:31.586Z,2.40
2018-09-25T00:21:31.576Z,2.20
2018-09-25T00:22:31.530Z,2.50
2018-09-25T00:23:31.537Z,2.30
2018-09-25T00:24:31.492Z,2.20
2018-09-25T00:25:31.471Z,2.30
2018-09-25T00:26:31.445Z,2.50
2018-09-25T00:27:31.451Z,2.60
2018-09-25T00:28:31.430Z,2.60
2018-09-25T00:29:31.384Z,2.60
2018-09-25T00:30:31.341Z,2.60
2018-09-25T00:31:31.357Z,2.70
2018-09-25T00:32:31.299Z,2.70
2018-09-25T00:33:31.300Z,2.40
2018-09-25T00:34:31.243Z,2.30
2018-09-25T00:35:31.224Z,2.70
2018-09-25T00:36:31.234Z,2.40
2018-09-25T00:37:31.216Z,2.40
2018-09-25T00:38:31.175Z,2.40
2018-09-25T00:39:31.148Z,2.90
2018-09-25T00:40:31.150Z,2.60
2018-09-25T00:41:31.114Z,2.50
2018-09-25T00:42:31.069Z,2.40
2018-09-25T00:43:31.073Z,2.60
2018-09-25T00:44:31.020Z,2.60
2018-09-25T00:45:31.019Z,2.60
2018-09-25T00:46:30.974Z,2.30
2018-09-25T00:47:30.984Z,2.50
2018-09-25T00:48:30.948Z,2.70
2018-09-25T00:49:30.902Z,2.30
2018-09-25T00:50:30.887Z,2.60
2018-09-25T00:51:30.861Z,2.60
2018-09-25T00:52:30.846Z,2.40
2018-09-25T00:53:30.823Z,2.10
2018-09-25T00:54:30.824Z,2.50
2018-09-25T00:55:30.779Z,2.30
2018-09-25T00:56:30.772Z,2.40
2018-09-25T00:57:30.751Z,2.30
2018-09-25T00:58:30.708Z,2.40
2018-09-25T00:59:30.673Z,2.50
2018-09-25T01:00:30.641Z,2.00
2018-09-25T01:01:30.619Z,2.10
2018-09-25T01:02:30.640Z,2.10
2018-09-25T01:03:30.581Z,2.40
2018-09-25T01:04:30.556Z,2.40
2018-09-25T01:05:30.529Z,2.00
2018-09-25T01:06:30.531Z,2.30
2018-09-25T01:07:30.501Z,2.10
2018-09-25T01:08:30.455Z,2.00
2018-09-25T01:09:30.463Z,2.60
2018-09-25T01:10:30.435Z,2.30
2018-09-25T01:11:30.391Z,2.20
2018-09-25T01:12:30.407Z,2.10
2018-09-25T01:13:30.344Z,2.50
2018-09-25T01:14:30.331Z,2.20
2018-09-25T01:15:30.301Z,2.30
2018-09-25T01:16:30.298Z,2.00
2018-09-25T01:17:30.276Z,2.30
2018-09-25T01:18:30.226Z,2.30
2018-09-25T01:19:30.203Z,2.40
2018-09-25T01:20:30.186Z,2.20
2018-09-25T01:21:30.166Z,2.20
2018-09-25T01:22:30.163Z,2.20
2018-09-25T01:23:30.167Z,2.30
2018-09-25T01:24:30.101Z,2.10
2018-09-25T01:25:30.063Z,2.20
2018-09-25T01:26:30.040Z,2.00
2018-09-25T01:27:30.059Z,2.20
2018-09-25T01:28:29.999Z,2.30
2018-09-25T01:29:29.971Z,2.10
2018-09-25T01:30:29.950Z,2.20
2018-09-25T01:31:29.926Z,2.20
2018-09-25T01:32:29.901Z,2.40
2018-09-25T01:33:29.880Z,2.00
2018-09-25T01:34:29.859Z,2.30
2018-09-25T01:35:29.865Z,2.20
2018-09-25T01:36:29.808Z,2.10
2018-09-25T01:37:29.784Z,2.30
2018-09-25T01:38:29.810Z,2.20
2018-09-25T01:39:29.737Z,2.20
2018-09-25T01:40:29.723Z,2.10
2018-09-25T01:41:29.699Z,2.10
2018-09-25T01:42:29.702Z,2.40
2018-09-25T01:43:29.665Z,2.20
2018-09-25T01:44:29.636Z,2.20
2018-09-25T01:45:29.597Z,2.50
2018-09-25T01:46:29.578Z,2.20
2018-09-25T01:47:29.609Z,1.90
2018-09-25T01:48:29.545Z,2.20
2018-09-25T01:49:29.535Z,2.30
2018-09-25T01:50:29.500Z,2.50
2018-09-25T01:51:29.478Z,2.10
2018-09-25T01:52:29.448Z,2.30
2018-09-25T01:53:29.410Z,2.10
2018-09-25T01:54:29.434Z,2.40
2018-09-25T01:55:29.365Z,2.20
2018-09-25T01:56:29.357Z,2.30
2018-09-25T01:57:29.328Z,2.20
2018-09-25T01:58:29.303Z,2.70
2018-09-25T01:59:29.278Z,2.40
2018-09-25T02:00:29.282Z,2.50
2018-09-25T02:01:29.231Z,2.50
2018-09-25T02:02:29.211Z,2.10
2018-09-25T02:03:29.180Z,2.40
2018-09-25T02:04:29.177Z,2.30
2018-09-25T02:05:29.133Z,2.30
2018-09-25T02:06:29.135Z,2.40
2018-09-25T02:07:29.097Z,2.20
2018-09-25T02:08:29.083Z,2.70
2018-09-25T02:09:29.052Z,2.40
2018-09-25T02:10:29.019Z,2.20
2018-09-25T02:11:29.013Z,2.50
2018-09-25T02:12:28.964Z,2.50
2018-09-25T02:13:28.955Z,2.80
2018-09-25T02:14:28.932Z,2.10
2018-09-25T02:15:28.912Z,2.30
2018-09-25T02:16:28.908Z,2.30
2018-09-25T02:17:28.875Z,2.10
2018-09-25T02:18:28.854Z,2.40
2018-09-25T02:19:28.826Z,2.20
2018-09-25T02:20:28.778Z,2.30
2018-09-25T02:21:28.760Z,2.60
2018-09-25T02:22:28.740Z,2.30
2018-09-25T02:23:28.742Z,2.60
2018-09-25T02:24:28.688Z,2.60
2018-09-25T02:25:28.664Z,2.40
2018-09-25T02:26:28.652Z,2.20
2018-09-25T02:27:28.620Z,2.40
2018-09-25T02:28:28.608Z,2.60
2018-09-25T02:29:28.606Z,2.40
2018-09-25T02:30:28.580Z,2.50
2018-09-25T02:31:28.538Z,2.40
2018-09-25T02:32:28.518Z,2.30
2018-09-25T02:33:28.500Z,2.50
2018-09-25T02:34:28.478Z,2.60
2018-09-25T02:35:28.446Z,2.20
2018-09-25T02:36:28.405Z,2.70
2018-09-25T02:37:28.414Z,2.60
2018-09-25T02:38:28.386Z,2.80
2018-09-25T02:39:28.362Z,2.70
2018-09-25T02:40:28.315Z,2.50
2018-09-25T02:41:28.307Z,2.50
2018-09-25T02:42:28.299Z,2.10
2018-09-25T02:43:28.275Z,2.70
2018-09-25T02:44:28.224Z,2.60
2018-09-25T02:45:28.208Z,2.60
2018-09-25T02:46:28.169Z,2.20
2018-09-25T02:47:28.167Z,2.60
2018-09-25T02:48:28.120Z,2.60
2018-09-25T02:49:28.118Z,2.60
2018-09-25T02:50:28.096Z,2.40
2018-09-25T02:51:28.061Z,2.80
2018-09-25T02:52:28.055Z,2.30
2018-09-25T02:53:28.044Z,2.10
2018-09-25T02:54:27.987Z,3.00
2018-09-25T02:55:27.978Z,2.70
2018-09-25T02:56:27.940Z,2.40
2018-09-25T02:57:27.936Z,2.50
2018-09-25T02:58:27.886Z,2.60
2018-09-25T02:59:27.865Z,2.70
2018-09-25T03:00:27.856Z,2.90
2018-09-25T03:01:27.819Z,2.60
2018-09-25T03:02:27.792Z,2.90
2018-09-25T03:03:27.770Z,3.00
2018-09-25T03:04:27.743Z,2.70
2018-09-25T03:05:27.754Z,2.80
2018-09-25T03:06:27.714Z,3.10
2018-09-25T03:07:27.693Z,2.60
2018-09-25T03:08:27.649Z,2.80
2018-09-25T03:09:27.670Z,3.30
2018-09-25T03:10:27.620Z,2.80
2018-09-25T03:11:27.576Z,2.80
2018-09-25T03:12:27.553Z,2.80
2018-09-25T03:13:27.531Z,2.80
2018-09-25T03:14:27.510Z,2.90
2018-09-25T03:15:27.499Z,2.90
2018-09-25T03:16:27.468Z,2.90
2018-09-25T03:17:27.445Z,2.80
2018-09-25T03:18:27.416Z,3.30
2018-09-25T03:19:27.493Z,3.00
2018-09-25T03:20:27.416Z,2.90
2018-09-25T03:21:27.374Z,3.00
2018-09-25T03:22:27.326Z,2.90
2018-09-25T03:23:27.318Z,2.60
2018-09-25T03:24:27.292Z,2.50
2018-09-25T03:25:27.270Z,2.90
2018-09-25T03:26:27.227Z,3.00
2018-09-25T03:27:27.216Z,3.10
2018-09-25T03:28:27.184Z,2.60
2018-09-25T03:29:27.160Z,2.80
2018-09-25T03:30:27.132Z,2.90
2018-09-25T03:31:27.149Z,3.00
2018-09-25T03:32:27.100Z,3.00
2018-09-25T03:33:27.059Z,2.80
2018-09-25T03:34:27.038Z,2.70
2018-09-25T03:35:27.019Z,3.00
2018-09-25T03:36:26.996Z,2.90
2018-09-25T03:37:26.975Z,2.90
2018-09-25T03:38:26.941Z,2.50
2018-09-25T03:39:26.942Z,2.80
2018-09-25T03:40:26.909Z,3.20
2018-09-25T03:41:26.888Z,3.00
2018-09-25T03:42:26.853Z,3.20
2018-09-25T03:43:26.846Z,3.20
2018-09-25T03:44:26.808Z,3.00
2018-09-25T03:45:26.779Z,3.00
2018-09-25T03:46:26.774Z,3.00
2018-09-25T03:47:26.746Z,3.50
2018-09-25T03:48:26.707Z,2.80
2018-09-25T03:49:26.703Z,2.90
2018-09-25T03:50:26.662Z,2.80
2018-09-25T03:51:26.643Z,2.70
2018-09-25T03:52:26.620Z,3.30
2018-09-25T03:53:26.590Z,3.10
2018-09-25T03:54:26.587Z,3.30
2018-09-25T03:55:26.539Z,2.90
2018-09-25T03:56:26.527Z,3.10
2018-09-25T03:57:26.501Z,3.50
2018-09-25T03:58:26.466Z,3.30
2018-09-25T03:59:26.475Z,3.20
2018-09-25T04:00:26.418Z,3.30
2018-09-25T04:01:26.408Z,3.20
2018-09-25T04:02:26.395Z,3.10
2018-09-25T04:03:26.353Z,3.30
2018-09-25T04:04:26.358Z,3.20
2018-09-25T04:05:26.329Z,3.10
2018-09-25T04:06:26.302Z,3.20
2018-09-25T04:07:26.252Z,3.20
2018-09-25T04:08:26.230Z,3.40
2018-09-25T04:09:26.228Z,3.60
2018-09-25T04:10:26.188Z,3.40
2018-09-25T04:11:26.190Z,3.00
2018-09-25T04:12:26.136Z,3.40
2018-09-25T04:13:26.130Z,3.70
2018-09-25T04:14:26.106Z,3.40
2018-09-25T04:15:26.080Z,3.20
2018-09-25T04:16:26.066Z,3.40
2018-09-25T04:17:26.070Z,3.50
2018-09-25T04:18:25.993Z,3.30
2018-09-25T04:19:25.972Z,3.60
2018-09-25T04:20:25.948Z,3.40
2018-09-25T04:21:25.965Z,3.80
2018-09-25T04:22:25.925Z,3.30
2018-09-25T04:23:25.894Z,3.40
2018-09-25T04:24:25.850Z,3.50
2018-09-25T04:25:25.870Z,3.40
2018-09-25T04:26:25.830Z,3.60
2018-09-25T04:27:25.805Z,3.70
2018-09-25T04:28:25.828Z,3.40
2018-09-25T04:29:25.751Z,4.00
2018-09-25T04:30:25.721Z,3.70
2018-09-25T04:31:25.702Z,3.50
2018-09-25T04:32:25.661Z,4.00
2018-09-25T04:33:25.658Z,4.00
2018-09-25T04:34:25.628Z,3.60
2018-09-25T04:35:25.628Z,3.70
2018-09-25T04:36:25.584Z,3.80
2018-09-25T04:37:25.573Z,4.10
2018-09-25T04:38:25.538Z,3.70
2018-09-25T04:39:25.504Z,3.90
2018-09-25T04:40:25.485Z,4.20
2018-09-25T04:41:25.471Z,3.70
2018-09-25T04:42:25.429Z,3.90
2018-09-25T04:43:25.402Z,4.20
2018-09-25T04:44:25.389Z,4.00
2018-09-25T04:45:25.369Z,3.70
2018-09-25T04:46:25.335Z,3.80
2018-09-25T04:47:25.330Z,4.20
2018-09-25T04:48:25.311Z,4.20
2018-09-25T04:49:25.270Z,3.90
2018-09-25T04:50:25.238Z,3.90
2018-09-25T04:51:25.214Z,3.80
2018-09-25T04:52:25.186Z,3.60
2018-09-25T04:53:25.159Z,3.70
2018-09-25T04:54:25.155Z,4.20
2018-09-25T04:55:25.105Z,4.40
2018-09-25T04:56:25.114Z,4.30
2018-09-25T04:57:25.076Z,4.10
2018-09-25T04:58:25.049Z,4.10
2018-09-25T04:59:25.035Z,3.90
2018-09-25T05:00:25.018Z,4.00
2018-09-25T05:01:24.995Z,4.30
2018-09-25T05:02:24.946Z,4.20
2018-09-25T05:03:24.942Z,4.40
2018-09-25T05:04:24.929Z,4.00
2018-09-25T05:05:24.869Z,4.20
2018-09-25T05:06:24.896Z,4.20
2018-09-25T05:07:24.846Z,4.30
2018-09-25T05:08:24.816Z,4.30
2018-09-25T05:09:24.787Z,3.80
2018-09-25T05:10:24.756Z,4.30
2018-09-25T05:11:24.775Z,4.30
2018-09-25T05:12:32.377Z,4.60
2018-09-25T05:14:19.096Z,4.60
2018-09-25T05:15:19.048Z,4.70
2018-09-25T05:16:19.036Z,6.80
2018-09-25T05:17:18.984Z,5.90
2018-09-25T05:18:18.971Z,6.00
2018-09-25T05:19:18.937Z,6.20
2018-09-25T05:20:18.919Z,5.90
2018-09-25T05:21:18.895Z,6.10
2018-09-25T05:22:18.879Z,6.20
2018-09-25T05:23:18.891Z,6.40
2018-09-25T05:24:18.818Z,6.90
2018-09-25T05:25:18.796Z,5.70
2018-09-25T05:26:18.774Z,5.20
2018-09-25T05:27:18.745Z,5.10
2018-09-25T05:28:18.741Z,5.00
2018-09-25T05:29:18.702Z,5.20
2018-09-25T05:30:18.672Z,5.30
2018-09-25T05:31:18.642Z,5.60
2018-09-25T05:32:18.637Z,5.30
2018-09-25T05:33:18.607Z,5.40
2018-09-25T05:34:18.585Z,5.10
2018-09-25T05:35:18.571Z,5.70
2018-09-25T05:36:18.529Z,5.40
2018-09-25T05:37:18.512Z,5.70
2018-09-25T05:38:18.506Z,5.00
2018-09-25T05:39:18.460Z,5.30
2018-09-25T05:40:18.437Z,5.80
2018-09-25T05:41:18.425Z,5.20
2018-09-25T05:42:18.422Z,5.40
2018-09-25T05:43:18.359Z,4.80
2018-09-25T05:44:18.340Z,5.30
2018-09-25T05:45:18.329Z,5.40
2018-09-25T05:46:18.310Z,5.10
2018-09-25T05:47:18.260Z,5.20
2018-09-25T05:48:18.282Z,5.80
2018-09-25T05:49:18.253Z,5.10
2018-09-25T05:50:18.200Z,5.50
2018-09-25T05:51:18.164Z,5.20
2018-09-25T05:52:18.162Z,5.60
2018-09-25T05:53:18.125Z,5.10
2018-09-25T05:54:18.111Z,6.10
2018-09-25T05:55:18.111Z,6.50
2018-09-25T05:56:18.066Z,6.10
2018-09-25T05:57:18.050Z,6.30
2018-09-25T05:58:18.015Z,6.80
2018-09-25T05:59:17.976Z,6.80
2018-09-25T06:00:17.968Z,6.70
2018-09-25T06:01:17.935Z,7.00
2018-09-25T06:02:17.927Z,6.70
2018-09-25T06:03:17.879Z,6.70
2018-09-25T06:04:17.875Z,6.80
2018-09-25T06:05:17.833Z,6.80
2018-09-25T06:06:17.812Z,6.70
2018-09-25T06:07:17.791Z,6.30
2018-09-25T06:08:17.776Z,6.20
2018-09-25T06:09:17.810Z,6.30
2018-09-25T06:10:17.743Z,6.10
2018-09-25T06:11:17.721Z,6.10
2018-09-25T06:12:17.689Z,5.80
2018-09-25T06:13:17.645Z,6.30
2018-09-25T06:14:17.637Z,6.20
2018-09-25T06:15:17.612Z,5.80
2018-09-25T06:16:17.581Z,6.10
2018-09-25T06:17:17.547Z,6.30
2018-09-25T06:18:17.531Z,6.40
2018-09-25T06:19:17.528Z,6.20
2018-09-25T06:20:17.487Z,6.30
2018-09-25T06:21:17.460Z,5.90
2018-09-25T06:22:17.443Z,6.60
2018-09-25T06:23:17.432Z,6.20
2018-09-25T06:24:17.392Z,7.50
2018-09-25T06:25:17.396Z,6.90
2018-09-25T06:26:17.355Z,7.10
2018-09-25T06:27:17.342Z,7.10
2018-09-25T06:28:17.313Z,6.80
2018-09-25T06:29:17.269Z,6.90
2018-09-25T06:30:17.255Z,7.50
2018-09-25T06:31:17.234Z,7.30
2018-09-25T06:32:17.196Z,7.00
2018-09-25T06:33:17.182Z,7.50
2018-09-25T06:34:17.180Z,7.80
2018-09-25T06:35:17.151Z,7.30
2018-09-25T06:36:17.101Z,7.30
2018-09-25T06:37:17.160Z,7.30
2018-09-25T06:38:17.061Z,7.40
2018-09-25T06:39:17.030Z,7.50
2018-09-25T06:40:17.009Z,7.80
2018-09-25T06:41:16.998Z,7.70
2018-09-25T06:42:16.979Z,7.50
2018-09-25T06:43:16.951Z,7.90
2018-09-25T06:44:16.943Z,8.20
2018-09-25T06:45:16.903Z,7.80
2018-09-25T06:46:16.908Z,7.80
2018-09-25T06:47:16.947Z,7.90
2018-09-25T06:48:16.835Z,8.00
2018-09-25T06:49:16.811Z,7.90
2018-09-25T06:50:16.823Z,7.80
2018-09-25T06:51:16.769Z,7.50
2018-09-25T06:52:16.752Z,7.70
2018-09-25T06:53:16.744Z,7.60
2018-09-25T06:54:16.698Z,7.10
2018-09-25T06:55:16.742Z,7.90
2018-09-25T06:56:16.660Z,7.00
2018-09-25T06:57:16.655Z,7.10
2018-09-25T06:58:16.641Z,7.10
2018-09-25T06:59:16.592Z,6.80
2018-09-25T07:00:16.589Z,7.20
2018-09-25T07:01:16.543Z,6.60
2018-09-25T07:02:16.538Z,6.80
2018-09-25T07:03:16.510Z,7.20
2018-09-25T07:04:16.481Z,7.30
2018-09-25T07:05:16.458Z,7.40
2018-09-25T07:06:16.436Z,6.60
2018-09-25T07:07:16.419Z,6.70
2018-09-25T07:08:16.400Z,7.00
2018-09-25T07:09:16.372Z,6.70
2018-09-25T07:10:16.505Z,6.40
2018-09-25T07:11:16.352Z,6.60
2018-09-25T07:12:16.319Z,6.40
2018-09-25T07:13:16.286Z,6.80
2018-09-25T07:14:16.271Z,7.10
2018-09-25T07:15:16.266Z,6.70
2018-09-25T07:16:16.263Z,6.40
2018-09-25T07:17:16.216Z,6.40
2018-09-25T07:18:16.304Z,5.90
2018-09-25T07:19:16.162Z,6.10
2018-09-25T07:20:16.169Z,6.10
2018-09-25T07:21:16.118Z,6.00
2018-09-25T07:22:16.105Z,6.40
2018-09-25T07:23:16.098Z,6.20
2018-09-25T07:24:16.074Z,6.70
2018-09-25T07:25:16.062Z,6.00
2018-09-25T07:26:16.017Z,6.70
2018-09-25T07:27:15.992Z,6.40
2018-09-25T07:28:15.995Z,6.40
2018-09-25T07:29:15.957Z,6.10
2018-09-25T07:30:15.935Z,5.80
2018-09-25T07:31:15.943Z,6.40
2018-09-25T07:32:15.928Z,6.40
2018-09-25T07:33:15.877Z,6.20
2018-09-25T07:34:15.865Z,6.00
2018-09-25T07:35:15.846Z,6.20
2018-09-25T07:36:15.832Z,6.60
2018-09-25T07:37:15.821Z,6.40
2018-09-25T07:38:15.781Z,5.60
2018-09-25T07:39:15.760Z,5.50
2018-09-25T07:40:15.734Z,5.50
2018-09-25T07:41:15.731Z,5.80
2018-09-25T07:42:15.684Z,5.60
2018-09-25T07:43:15.669Z,5.80
2018-09-25T07:44:15.652Z,5.60
2018-09-25T07:45:15.638Z,5.50
2018-09-25T07:46:15.613Z,6.10
2018-09-25T07:47:15.633Z,6.10
2018-09-25T07:48:15.563Z,6.20
2018-09-25T07:49:15.541Z,5.80
2018-09-25T07:50:15.528Z,5.80
2018-09-25T07:51:15.509Z,6.10
2018-09-25T07:52:15.486Z,6.10
2018-09-25T07:53:15.446Z,5.60
2018-09-25T07:54:15.436Z,5.50
2018-09-25T07:55:15.417Z,6.00
2018-09-25T07:56:15.379Z,5.90
2018-09-25T07:57:15.411Z,5.70
2018-09-25T07:58:15.339Z,6.40
2018-09-25T07:59:15.348Z,5.20
2018-09-25T08:00:15.402Z,5.00
2018-09-25T08:01:15.339Z,4.70
2018-09-25T08:02:15.310Z,5.00
2018-09-25T08:03:15.373Z,5.10
2018-09-25T08:04:15.210Z,4.70
2018-09-25T08:05:15.201Z,5.00
2018-09-25T08:06:15.171Z,5.10
2018-09-25T08:07:15.171Z,4.60
2018-09-25T08:08:15.133Z,4.40
2018-09-25T08:09:15.117Z,4.70
2018-09-25T08:10:15.121Z,4.90
2018-09-25T08:11:15.079Z,5.30
2018-09-25T08:12:15.044Z,4.40
2018-09-25T08:13:15.033Z,4.30
2018-09-25T08:14:15.006Z,4.20
2018-09-25T08:15:14.985Z,4.00
2018-09-25T08:16:14.963Z,3.90
2018-09-25T08:17:14.939Z,3.80
2018-09-25T08:18:14.952Z,3.40
2018-09-25T08:19:14.935Z,3.40
2018-09-25T08:20:14.899Z,3.10
2018-09-25T08:21:15.936Z,3.10
2018-09-25T08:22:14.918Z,3.10
2018-09-25T08:23:14.834Z,3.20
2018-09-25T08:24:14.823Z,3.10
2018-09-25T08:25:14.778Z,3.10
2018-09-25T08:26:14.769Z,3.20
2018-09-25T08:27:14.731Z,2.70
2018-09-25T08:28:14.730Z,3.10
2018-09-25T08:29:14.695Z,2.80
2018-09-25T08:30:14.691Z,2.40
2018-09-25T08:31:14.648Z,2.80
2018-09-25T08:32:14.681Z,2.50
2018-09-25T08:33:14.611Z,3.00
2018-09-25T08:34:14.602Z,2.80
2018-09-25T08:35:14.583Z,2.80
2018-09-25T08:36:14.549Z,2.80
2018-09-25T08:37:14.525Z,2.90
2018-09-25T08:38:14.503Z,2.70
2018-09-25T08:39:14.509Z,3.30
2018-09-25T08:40:14.484Z,3.30
2018-09-25T08:41:14.458Z,3.00
2018-09-25T08:42:14.417Z,3.50
2018-09-25T08:43:14.399Z,2.90
2018-09-25T08:44:14.396Z,3.00
2018-09-25T08:45:14.376Z,2.60
2018-09-25T08:46:14.339Z,2.40
2018-09-25T08:47:14.334Z,2.50
2018-09-25T08:48:14.316Z,2.70
2018-09-25T08:49:14.279Z,2.50
2018-09-25T08:50:14.292Z,2.80
2018-09-25T08:51:14.229Z,2.60
2018-09-25T08:52:14.234Z,2.40
2018-09-25T08:53:14.226Z,2.30
2018-09-25T08:54:14.183Z,2.60
2018-09-25T08:55:14.152Z,2.60
2018-09-25T08:56:14.144Z,2.80
2018-09-25T08:57:14.106Z,2.80
2018-09-25T08:58:14.092Z,2.30
2018-09-25T08:59:14.084Z,2.60
2018-09-25T09:00:14.049Z,2.90
2018-09-25T09:01:14.025Z,2.40
2018-09-25T09:02:14.030Z,2.40
2018-09-25T09:03:13.990Z,2.40
2018-09-25T09:04:14.010Z,2.40
2018-09-25T09:05:13.969Z,2.90
2018-09-25T09:06:13.947Z,2.90
2018-09-25T09:07:13.939Z,2.90
2018-09-25T09:08:13.893Z,2.90
2018-09-25T09:09:13.867Z,2.90
2018-09-25T09:10:13.867Z,3.10
2018-09-25T09:11:13.826Z,2.70
2018-09-25T09:12:13.826Z,3.30
2018-09-25T09:13:13.798Z,2.90
2018-09-25T09:14:13.774Z,2.60
2018-09-25T09:15:13.771Z,2.90
2018-09-25T09:16:13.727Z,2.50
2018-09-25T09:17:13.712Z,2.80
2018-09-25T09:18:13.711Z,2.50
2018-09-25T09:19:13.715Z,2.80
2018-09-25T09:20:13.739Z,2.60
2018-09-25T09:21:13.852Z,2.60
2018-09-25T09:22:13.607Z,2.70
2018-09-25T09:23:13.577Z,2.50
2018-09-25T09:24:13.560Z,2.40
2018-09-25T09:25:13.604Z,3.20
2018-09-25T09:26:13.532Z,2.40
2018-09-25T09:27:13.520Z,2.70
2018-09-25T09:28:13.485Z,2.60
2018-09-25T09:29:13.492Z,2.80
2018-09-25T09:30:13.469Z,2.50
2018-09-25T09:31:13.423Z,2.70
2018-09-25T09:32:13.401Z,2.60
2018-09-25T09:33:13.396Z,2.90
2018-09-25T09:34:13.393Z,2.40
2018-09-25T09:35:13.354Z,3.10
2018-09-25T09:36:13.332Z,2.50
2018-09-25T09:37:13.325Z,2.70
2018-09-25T09:38:13.297Z,2.70
2018-09-25T09:39:13.283Z,2.60
2018-09-25T09:40:13.253Z,2.50
2018-09-25T09:41:13.359Z,2.70
2018-09-25T09:42:13.207Z,3.00
2018-09-25T09:43:13.185Z,2.80
2018-09-25T09:44:13.174Z,2.90
2018-09-25T09:45:13.155Z,2.90
2018-09-25T09:46:13.136Z,2.80
2018-09-25T09:47:13.106Z,3.30
2018-09-25T09:48:13.140Z,3.20
2018-09-25T09:49:13.103Z,2.90
2018-09-25T09:50:13.078Z,2.90
2018-09-25T09:51:13.023Z,2.80
2018-09-25T09:52:13.025Z,2.80
2018-09-25T09:53:13.005Z,2.50
2018-09-25T09:54:12.961Z,2.80
2018-09-25T09:55:12.943Z,2.60
2018-09-25T09:56:13.018Z,2.70
2018-09-25T09:57:12.915Z,2.90
2018-09-25T09:58:12.901Z,2.90
2018-09-25T09:59:12.883Z,2.60
2018-09-25T10:00:12.867Z,2.60
2018-09-25T10:01:12.855Z,2.40
2018-09-25T10:02:12.814Z,2.80
2018-09-25T10:03:12.798Z,2.60
2018-09-25T10:04:12.802Z,2.60
2018-09-25T10:05:12.754Z,2.40
2018-09-25T10:06:12.771Z,2.00
2018-09-25T10:08:51.389Z,1.90
2018-09-25T10:09:45.801Z,2.00
2018-09-25T10:10:45.771Z,2.00
2018-09-25T10:11:45.751Z,1.90
2018-09-25T10:12:45.730Z,2.30
2018-09-25T10:13:45.716Z,1.90
2018-09-25T10:14:45.699Z,1.90
2018-09-25T10:15:45.668Z,1.90
2018-09-25T10:16:45.655Z,2.10
2018-09-25T10:17:45.638Z,1.70
2018-09-25T10:18:45.672Z,1.70
2018-09-25T10:19:45.594Z,2.00
2018-09-25T10:20:45.585Z,2.00
2018-09-25T10:21:45.596Z,1.70
2018-09-25T10:22:45.537Z,2.00
2018-09-25T10:23:45.518Z,2.00
2018-09-25T10:24:45.528Z,2.20
2018-09-25T10:25:45.490Z,1.90
2018-09-25T10:26:45.480Z,1.50
2018-09-25T10:27:45.449Z,1.70
2018-09-25T10:28:45.442Z,1.70
2018-09-25T10:29:45.427Z,1.60
2018-09-25T10:30:45.390Z,1.90
2018-09-25T10:31:45.398Z,1.90
2018-09-25T10:32:45.357Z,1.80
2018-09-25T10:33:45.356Z,1.90
2018-09-25T10:34:45.313Z,1.90
2018-09-25T10:35:45.306Z,1.50
2018-09-25T10:36:45.298Z,1.60
2018-09-25T10:37:45.288Z,1.80
2018-09-25T10:38:45.241Z,1.80
2018-09-25T10:39:45.268Z,1.60
2018-09-25T10:40:45.207Z,1.60
2018-09-25T10:41:45.242Z,1.30
2018-09-25T10:42:45.199Z,1.40
2018-09-25T10:43:45.148Z,1.60
2018-09-25T10:44:45.140Z,1.30
2018-09-25T10:45:45.115Z,1.60
2018-09-25T10:46:45.130Z,1.40
2018-09-25T10:47:45.084Z,1.70
2018-09-25T10:48:45.073Z,1.70
2018-09-25T10:49:45.080Z,1.60
2018-09-25T10:50:45.034Z,1.50
2018-09-25T10:51:45.025Z,1.40
2018-09-25T10:52:45.004Z,1.60
2018-09-25T10:53:44.994Z,1.70
2018-09-25T10:54:44.959Z,1.90
2018-09-25T10:55:45.037Z,1.80
2018-09-25T10:56:44.937Z,1.30
2018-09-25T10:57:44.890Z,1.60
2018-09-25T10:58:44.898Z,1.60
2018-09-25T10:59:44.881Z,1.90
2018-09-25T11:00:44.864Z,1.70
2018-09-25T11:01:44.824Z,1.60
2018-09-25T11:02:44.822Z,1.70
2018-09-25T11:03:44.837Z,1.90
2018-09-25T11:04:44.763Z,1.90
2018-09-25T11:05:44.750Z,2.10
2018-09-25T11:06:44.746Z,2.30
2018-09-25T11:07:44.735Z,2.30
2018-09-25T11:08:44.738Z,2.50
2018-09-25T11:09:44.694Z,2.40
2018-09-25T11:10:44.667Z,2.40
2018-09-25T11:11:44.677Z,2.20
2018-09-25T11:12:44.618Z,2.00
2018-09-25T11:13:44.609Z,2.00
2018-09-25T11:14:44.599Z,2.10
2018-09-25T11:15:44.565Z,2.00
2018-09-25T11:16:44.582Z,2.10
2018-09-25T11:17:44.541Z,2.30
2018-09-25T11:18:44.528Z,2.00
2018-09-25T11:19:44.511Z,1.90
2018-09-25T11:20:44.489Z,2.30
2018-09-25T11:21:44.453Z,2.20
2018-09-25T11:22:44.430Z,2.30
2018-09-25T11:23:44.454Z,2.10
2018-09-25T11:24:44.397Z,2.20
2018-09-25T11:25:44.380Z,2.00
2018-09-25T11:26:44.408Z,2.10
2018-09-25T11:27:44.350Z,2.00
2018-09-25T11:28:44.320Z,1.80
2018-09-25T11:29:44.318Z,2.10
2018-09-25T11:30:44.284Z,2.20
2018-09-25T11:31:44.281Z,1.90
2018-09-25T11:32:44.260Z,2.10
2018-09-25T11:33:44.261Z,1.90
2018-09-25T11:34:44.236Z,2.00
2018-09-25T11:35:44.200Z,2.20
2018-09-25T11:36:44.215Z,1.90
2018-09-25T11:37:44.165Z,1.80
2018-09-25T11:38:44.139Z,2.30
2018-09-25T11:39:44.129Z,1.90
2018-09-25T11:40:44.183Z,2.00
2018-09-25T11:41:44.110Z,2.10
2018-09-25T11:42:44.062Z,2.30
2018-09-25T11:43:44.066Z,1.90
2018-09-25T11:44:44.025Z,2.00
2018-09-25T11:45:44.015Z,2.20
2018-09-25T11:46:44.079Z,1.90
2018-09-25T11:47:43.977Z,1.70
2018-09-25T11:48:43.964Z,2.20
2018-09-25T11:49:43.966Z,2.00
2018-09-25T11:50:43.952Z,2.00
2018-09-25T11:51:43.894Z,1.80
2018-09-25T11:52:43.935Z,1.90
2018-09-25T11:53:43.891Z,2.10
2018-09-25T11:54:43.836Z,2.30
2018-09-25T11:55:43.818Z,1.80
2018-09-25T11:56:43.815Z,1.80
2018-09-25T11:57:43.811Z,1.90
2018-09-25T11:58:43.801Z,2.40
2018-09-25T11:59:43.770Z,1.90
2018-09-25T12:00:43.723Z,1.80
2018-09-25T12:01:43.719Z,2.10
2018-09-25T12:02:43.695Z,1.80
2018-09-25T12:03:43.722Z,2.10
2018-09-25T12:04:43.652Z,1.70
2018-09-25T12:05:43.647Z,1.40
2018-09-25T12:06:43.636Z,1.70
2018-09-25T12:07:43.596Z,1.60
2018-09-25T12:08:43.604Z,1.60
2018-09-25T12:09:43.583Z,1.80
2018-09-25T12:10:43.547Z,1.70
2018-09-25T12:11:43.544Z,1.60
2018-09-25T12:12:43.507Z,1.60
2018-09-25T12:13:43.535Z,1.50
2018-09-25T12:14:43.466Z,1.40
2018-09-25T12:15:43.467Z,1.20
2018-09-25T12:16:43.427Z,1.60
2018-09-25T12:17:43.421Z,1.50
2018-09-25T12:18:43.390Z,1.80
2018-09-25T12:19:43.405Z,1.80
2018-09-25T12:20:43.345Z,2.30
2018-09-25T12:21:43.351Z,1.70
2018-09-25T12:22:43.308Z,1.70
2018-09-25T12:23:43.299Z,1.60
2018-09-25T12:24:43.302Z,1.60
2018-09-25T12:25:43.257Z,2.10
2018-09-25T12:26:43.247Z,1.70
2018-09-25T12:27:43.234Z,1.70
2018-09-25T12:28:43.205Z,1.70
2018-09-25T12:29:43.195Z,1.70
2018-09-25T12:30:43.165Z,1.70
2018-09-25T12:31:43.144Z,2.10
2018-09-25T12:32:43.244Z,1.30
2018-09-25T12:33:43.162Z,2.00
2018-09-25T12:34:43.084Z,1.50
2018-09-25T12:35:43.085Z,1.40
2018-09-25T12:36:43.044Z,1.60
2018-09-25T12:37:43.060Z,1.70
2018-09-25T12:38:43.057Z,1.40
2018-09-25T12:39:42.996Z,1.80
2018-09-25T12:40:42.972Z,1.70
2018-09-25T12:41:42.960Z,1.60
2018-09-25T12:42:42.932Z,1.80
2018-09-25T12:43:42.932Z,1.80
2018-09-25T12:44:42.918Z,1.70
2018-09-25T12:45:42.906Z,1.80
2018-09-25T12:46:42.882Z,1.70
2018-09-25T12:47:42.860Z,1.50
2018-09-25T12:48:42.820Z,1.60
2018-09-25T12:49:42.825Z,1.90
2018-09-25T12:50:42.788Z,1.80
2018-09-25T12:51:42.775Z,1.60
2018-09-25T12:52:42.774Z,1.90
2018-09-25T12:53:42.745Z,1.90
2018-09-25T12:54:42.703Z,1.60
2018-09-25T12:55:42.699Z,1.90
2018-09-25T12:56:42.666Z,1.70
2018-09-25T12:57:42.644Z,1.30
2018-09-25T12:58:42.658Z,1.30
2018-09-25T12:59:42.624Z,1.50
2018-09-25T13:00:42.621Z,1.60
2018-09-25T13:01:42.594Z,1.80
2018-09-25T13:02:42.553Z,1.80
2018-09-25T13:03:42.547Z,2.20
2018-09-25T13:04:42.553Z,1.60
2018-09-25T13:05:42.520Z,1.60
2018-09-25T13:06:42.485Z,1.60
2018-09-25T13:07:42.456Z,1.50
2018-09-25T13:08:42.458Z,2.10
2018-09-25T13:09:42.486Z,1.50
2018-09-25T13:10:42.425Z,1.60
2018-09-25T13:11:42.396Z,1.60
2018-09-25T13:12:42.363Z,1.80
2018-09-25T13:13:42.362Z,1.70
2018-09-25T13:14:42.322Z,1.50
2018-09-25T13:15:42.305Z,1.80
2018-09-25T13:16:42.289Z,1.70
2018-09-25T13:17:42.272Z,1.60
2018-09-25T13:18:42.278Z,1.80
2018-09-25T13:19:42.254Z,1.50
2018-09-25T13:20:42.218Z,1.40